Time;durP1;ratioP1;P1;durP2;ratioP2;P2;SDS_P1;SDS_P2;PMS_P1;PMS_P2;Temp;Humidity;BMP_temperature;BMP_pressure;BME280_temperature;BME280_humidity;BME280_pressure;Samples;Min_cycle;Max_cycle;Signal;HPM_P1;HPM_P2
2023/09/30 00:01:52;;;;;;;;;10.00;5.75;;;;;17.84;57.66;102237.56;5059221;28;45430;-40
2023/09/30 00:04:17;;;;;;;;;5.50;3.50;;;;;17.83;57.64;102243.97;5059066;28;45260;-40
2023/09/30 00:06:43;;;;;;;;;6.00;5.50;;;;;17.81;57.89;102249.47;5058806;28;45477;-41
2023/09/30 00:09:08;;;;;;;;;11.75;4.75;;;;;17.81;57.89;102249.47;5040738;28;47204;-41
2023/09/30 00:11:34;;;;;;;;;5.75;3.50;;;;;17.81;57.95;102251.34;5058903;28;45525;-42
2023/09/30 00:14:00;;;;;;;;;6.50;5.25;;;;;17.73;58.07;102252.09;5059103;28;45349;-39
2023/09/30 00:16:25;;;;;;;;;5.50;3.50;;;;;17.81;57.95;102259.41;5059225;28;45327;-40
2023/09/30 00:18:50;;;;;;;;;6.00;5.00;;;;;17.81;58.00;102259.41;5058820;28;45340;-41
2023/09/30 00:21:16;;;;;;;;;8.25;4.00;;;;;17.76;58.28;102257.19;5058907;28;45263;-41
2023/09/30 00:23:41;;;;;;;;;5.25;4.50;;;;;17.78;58.24;102260.59;5058807;28;45287;-45
2023/09/30 00:26:06;;;;;;;;;6.00;4.75;;;;;17.76;58.31;102259.88;5059189;28;45446;-42
2023/09/30 00:28:32;;;;;;;;;6.00;4.75;;;;;17.75;58.60;102257.38;5058831;28;45950;-40
2023/09/30 00:30:57;;;;;;;;;4.00;4.00;;;;;17.67;58.52;102244.66;5058801;28;45245;-41
2023/09/30 00:33:23;;;;;;;;;8.50;5.00;;;;;17.75;58.40;102262.75;5058621;28;45237;-40
2023/09/30 00:35:48;;;;;;;;;6.75;5.75;;;;;17.74;58.54;102266.38;5058746;28;45328;-41
2023/09/30 00:38:14;;;;;;;;;5.00;3.50;;;;;17.73;58.53;102256.63;5058378;28;45979;-44
2023/09/30 00:40:47;;;;;;;;;7.25;5.00;;;;;17.71;58.62;102262.19;5058132;28;45782;-42
2023/09/30 00:43:18;;;;;;;;;8.75;2.75;;;;;17.69;58.74;102261.47;5058487;28;45332;-44
2023/09/30 00:45:44;;;;;;;;;9.00;5.00;;;;;17.69;58.86;102254.25;5058719;28;45467;-41
2023/09/30 00:48:09;;;;;;;;;10.00;3.00;;;;;17.63;59.01;102246.81;5057755;28;47078;-44
2023/09/30 00:50:34;;;;;;;;;7.00;5.00;;;;;17.67;59.25;102247.34;5058265;28;45391;-44
2023/09/30 00:53:00;;;;;;;;;4.75;4.50;;;;;17.67;58.91;102247.34;5058549;28;45191;-42
2023/09/30 00:55:25;;;;;;;;;8.50;5.25;;;;;17.64;58.92;102245.78;5058542;28;45454;-42
2023/09/30 00:57:51;;;;;;;;;7.50;5.75;;;;;17.65;59.04;102247.47;5058096;28;45975;-41
2023/09/30 01:00:16;;;;;;;;;5.50;4.25;;;;;17.64;59.14;102243.09;5057851;28;45292;-41
2023/09/30 01:02:44;;;;;;;;;10.50;4.75;;;;;17.59;59.47;102228.44;5058339;28;45261;-42
2023/09/30 01:05:09;;;;;;;;;5.00;4.00;;;;;17.62;59.13;102218.22;5058259;28;45599;-42
2023/09/30 01:07:35;;;;;;;;;7.50;3.00;;;;;17.59;59.23;102223.06;5057827;28;47609;-42
2023/09/30 01:10:01;;;;;;;;;3.00;3.00;;;;;17.61;59.49;102242.56;5057898;28;45339;-42
2023/09/30 01:12:26;;;;;;;;;6.25;4.25;;;;;17.59;59.35;102264.25;5058169;28;45395;-41
2023/09/30 01:14:57;;;;;;;;;4.75;2.00;;;;;17.60;59.34;102262.41;5058225;28;45319;-40
2023/09/30 01:17:22;;;;;;;;;2.75;2.00;;;;;17.58;59.56;102261.75;5057786;28;46090;-41
2023/09/30 01:19:49;;;;;;;;;5.75;3.25;;;;;17.57;59.47;102247.44;5057654;28;45352;-42
2023/09/30 01:22:16;;;;;;;;;4.50;3.75;;;;;17.57;58.72;102252.81;5058076;28;45279;-43
2023/09/30 01:24:42;;;;;;;;;6.75;2.00;;;;;17.56;59.12;102263.72;5058036;28;45556;-42
2023/09/30 01:27:10;;;;;;;;;6.00;2.75;;;;;17.53;59.55;102272.97;5057565;28;47171;-42
2023/09/30 01:29:39;;;;;;;;;2.75;2.75;;;;;17.53;59.29;102270.28;5058061;28;45359;-43
2023/09/30 01:32:09;;;;;;;;;5.75;3.75;;;;;17.37;59.40;102244.06;5058093;28;45586;-43
2023/09/30 01:34:34;;;;;;;;;6.25;4.00;;;;;17.50;59.39;102267.06;5058625;28;45431;-44
2023/09/30 01:37:00;;;;;;;;;4.25;3.50;;;;;17.48;59.67;102258.28;5057117;28;45533;-43
2023/09/30 01:39:25;;;;;;;;;5.00;3.25;;;;;17.29;59.47;102227.84;5058195;28;45302;-44
2023/09/30 01:41:50;;;;;;;;;2.50;2.50;;;;;17.39;59.35;102242.06;5058776;28;45226;-43
2023/09/30 01:44:16;;;;;;;;;6.00;3.00;;;;;17.42;59.37;102248.97;5057411;28;45301;-46
2023/09/30 01:46:41;;;;;;;;;6.00;2.75;;;;;17.42;59.64;102235.53;5057716;28;45983;-45
2023/09/30 01:49:07;;;;;;;;;9.75;4.00;;;;;17.39;59.73;102234.00;5057564;28;45239;-42
2023/09/30 01:51:32;;;;;;;;;8.00;3.00;;;;;17.38;59.92;102229.63;5057241;28;45258;-41
2023/09/30 01:53:58;;;;;;;;;4.25;4.25;;;;;17.36;59.68;102234.31;5038871;28;45426;-46
2023/09/30 01:56:23;;;;;;;;;9.50;3.25;;;;;17.30;59.99;102231.38;5038756;28;45368;-42
2023/09/30 01:58:48;;;;;;;;;6.50;2.25;;;;;17.32;59.90;102238.31;5056357;28;45230;-42
2023/09/30 02:01:13;;;;;;;;;3.00;2.00;;;;;17.31;59.86;102236.59;5057690;28;45425;-43
2023/09/30 02:03:39;;;;;;;;;5.75;2.75;;;;;17.29;60.25;102233.25;5057555;28;45305;-46
2023/09/30 02:06:04;;;;;;;;;4.00;2.25;;;;;17.26;60.28;102220.09;5057462;28;47275;-45
2023/09/30 02:08:30;;;;;;;;;4.25;4.25;;;;;17.15;60.33;102202.38;5039107;28;45795;-41
2023/09/30 02:10:55;;;;;;;;;2.50;2.25;;;;;17.17;60.39;102219.19;5057459;28;45356;-44
2023/09/30 02:13:21;;;;;;;;;6.50;3.50;;;;;17.22;60.38;102232.16;5057668;28;45347;-42
2023/09/30 02:15:46;;;;;;;;;7.75;3.50;;;;;17.20;60.20;102229.63;5057144;28;45493;-43
2023/09/30 02:18:12;;;;;;;;;4.00;3.00;;;;;17.15;60.67;102221.19;5057148;28;45228;-44
2023/09/30 02:20:40;;;;;;;;;5.75;3.75;;;;;17.19;60.24;102237.84;5056718;28;45574;-44
2023/09/30 02:23:10;;;;;;;;;10.25;5.00;;;;;17.17;60.26;102237.16;5057408;28;45340;-40
2023/09/30 02:25:36;;;;;;;;;10.00;5.75;;;;;17.02;60.64;102218.00;5056716;28;46105;-40
2023/09/30 02:28:02;;;;;;;;;6.75;4.00;;;;;17.17;60.56;102237.16;5056860;28;45375;-41
2023/09/30 02:30:27;;;;;;;;;4.75;4.75;;;;;17.16;60.34;102240.84;5057017;28;45332;-40
2023/09/30 02:32:53;;;;;;;;;5.25;3.50;;;;;17.01;60.45;102229.78;5056084;28;45265;-40
2023/09/30 02:35:20;;;;;;;;;7.00;3.50;;;;;17.11;61.09;102243.16;5056494;28;47277;-42
2023/09/30 02:37:45;;;;;;;;;3.50;3.00;;;;;17.11;60.70;102230.56;5056571;28;45457;-45
2023/09/30 02:40:11;;;;;;;;;6.75;3.00;;;;;17.08;60.89;102227.31;5056861;28;45363;-45
2023/09/30 02:42:40;;;;;;;;;7.75;4.00;;;;;17.02;60.96;102227.91;5056769;28;45284;-45
2023/09/30 02:45:10;;;;;;;;;4.75;4.00;;;;;17.00;60.92;102228.09;5055702;28;45393;-42
2023/09/30 02:47:36;;;;;;;;;2.75;2.75;;;;;16.99;61.03;102223.72;5056857;28;45441;-41
2023/09/30 02:50:04;;;;;;;;;4.00;3.75;;;;;16.83;61.02;102200.19;5056767;28;45335;-44
2023/09/30 02:52:30;;;;;;;;;5.00;2.00;;;;;16.93;61.02;102218.94;5056983;28;45417;-41
2023/09/30 02:54:57;;;;;;;;;3.00;3.00;;;;;16.80;60.95;102215.78;5056087;28;46171;-40
2023/09/30 02:57:22;;;;;;;;;11.25;5.50;;;;;16.90;61.32;102241.59;5056738;28;45332;-42
2023/09/30 02:59:48;;;;;;;;;4.25;4.00;;;;;16.89;61.58;102234.50;5056695;28;45436;-41
2023/09/30 03:02:15;;;;;;;;;6.00;3.75;;;;;16.90;61.66;102244.28;5056578;28;45293;-41
2023/09/30 03:04:40;;;;;;;;;4.00;4.00;;;;;16.91;61.81;102247.81;5057426;28;47113;-41
2023/09/30 03:07:05;;;;;;;;;7.00;4.00;;;;;16.91;61.79;102255.88;5059914;28;45414;-41
2023/09/30 03:09:31;;;;;;;;;3.50;3.50;;;;;16.89;61.89;102263.25;5059124;28;45339;-43
2023/09/30 03:11:58;;;;;;;;;7.50;5.25;;;;;16.90;61.61;102257.72;5060392;28;45410;-42
2023/09/30 03:14:24;;;;;;;;;6.00;5.00;;;;;16.92;61.91;102262.94;5059799;28;45931;-43
2023/09/30 03:16:50;;;;;;;;;6.75;5.00;;;;;16.92;61.49;102257.56;5059902;28;45426;-46
2023/09/30 03:19:16;;;;;;;;;5.67;4.00;;;;;16.92;61.60;102262.94;5059876;28;45632;-44
2023/09/30 03:21:42;;;;;;;;;10.25;8.25;;;;;16.93;61.89;102259.25;5060185;28;45407;-44
2023/09/30 03:24:08;;;;;;;;;11.00;4.50;;;;;16.95;61.88;102257.28;5059168;28;46160;-44
2023/09/30 03:26:34;;;;;;;;;7.67;5.33;;;;;16.95;61.60;102262.66;5059898;28;45423;-43
2023/09/30 03:28:59;;;;;;;;;7.00;5.00;;;;;16.81;61.80;102249.72;5060034;28;45434;-43
2023/09/30 03:31:25;;;;;;;;;6.33;4.00;;;;;16.91;62.44;102264.78;5060313;28;45396;-43
2023/09/30 03:33:53;;;;;;;;;6.33;4.67;;;;;16.91;61.68;102270.16;5059878;28;46182;-42
2023/09/30 03:36:24;;;;;;;;;8.67;5.00;;;;;16.87;61.80;102271.47;5059314;28;45300;-44
2023/09/30 03:38:50;;;;;;;;;5.67;3.00;;;;;16.88;62.02;102266.94;5059699;28;45305;-41
2023/09/30 03:41:15;;;;;;;;;6.00;5.00;;;;;16.87;62.16;102270.63;5041903;28;45455;-41
2023/09/30 03:43:43;;;;;;;;;10.67;5.00;;;;;16.85;61.89;102277.97;5059333;28;46784;-41
2023/09/30 03:46:09;;;;;;;;;7.00;4.00;;;;;16.87;62.35;102284.06;5059423;28;45470;-42
2023/09/30 03:48:39;;;;;;;;;4.75;3.25;;;;;16.84;62.15;102274.44;5059723;28;45384;-41
2023/09/30 03:51:08;;;;;;;;;4.67;4.67;;;;;16.85;62.22;102270.75;5059549;28;45499;-42
2023/09/30 03:53:34;;;;;;;;;5.00;3.00;;;;;16.84;62.07;102270.91;5058178;28;46262;-41
2023/09/30 03:55:59;;;;;;;;;9.00;4.50;;;;;16.82;62.40;102268.38;5058982;28;48811;-41
2023/09/30 03:58:24;;;;;;;;;4.00;2.50;;;;;16.82;62.51;102281.00;5059255;28;45296;-42
2023/09/30 04:00:51;;;;;;;;;5.25;4.00;;;;;16.81;62.59;102271.22;5058700;28;45330;-42
2023/09/30 04:03:17;;;;;;;;;4.75;3.25;;;;;16.79;62.52;102262.47;5059119;28;46233;-42
2023/09/30 04:05:42;;;;;;;;;6.50;4.50;;;;;16.75;62.25;102261.91;5059090;28;45443;-41
2023/09/30 04:08:07;;;;;;;;;7.50;5.00;;;;;16.70;62.32;102256.97;5059075;28;48531;-45
2023/09/30 04:10:33;;;;;;;;;7.75;4.50;;;;;16.67;62.59;102256.41;5057821;28;45394;-44
2023/09/30 04:12:58;;;;;;;;;5.00;4.00;;;;;16.63;62.79;102246.97;5059271;28;45372;-42
2023/09/30 04:15:24;;;;;;;;;6.33;4.00;;;;;16.58;62.25;102233.97;5058272;28;45417;-41
2023/09/30 04:17:49;;;;;;;;;11.33;6.33;;;;;16.55;62.25;102228.88;5059324;28;45344;-39
2023/09/30 04:20:22;;;;;;;;;7.33;6.00;;;;;16.53;62.87;102219.31;5059116;28;45300;-42
2023/09/30 04:22:49;;;;;;;;;6.00;4.00;;;;;16.48;62.74;102219.75;5058615;28;45465;-42
2023/09/30 04:25:16;;;;;;;;;11.00;5.33;;;;;16.43;63.12;102217.53;5058799;28;45391;-42
2023/09/30 04:27:42;;;;;;;;;7.33;5.67;;;;;16.39;62.99;102220.63;5057925;28;45393;-40
2023/09/30 04:30:11;;;;;;;;;10.00;6.00;;;;;16.30;63.06;102206.25;5059069;28;45224;-41
2023/09/30 04:32:38;;;;;;;;;13.33;6.67;;;;;16.29;63.00;102207.25;5058005;28;47205;-42
2023/09/30 04:35:05;;;;;;;;;8.00;6.33;;;;;16.27;63.18;102203.88;5058562;28;45593;-42
2023/09/30 04:37:30;;;;;;;;;9.67;6.67;;;;;16.21;63.16;102191.03;5058507;28;45423;-41
2023/09/30 04:39:55;;;;;;;;;12.00;8.33;;;;;16.16;63.52;102196.00;5059159;28;45311;-41
2023/09/30 04:42:21;;;;;;;;;12.00;8.00;;;;;16.15;63.39;102200.53;5058641;28;45396;-41
2023/09/30 04:44:46;;;;;;;;;58.67;45.33;;;;;16.10;63.67;102196.63;5058311;28;45317;-42
2023/09/30 04:47:11;;;;;;;;;11.33;6.33;;;;;16.02;63.53;102213.47;5057717;28;45456;-42
2023/09/30 04:49:37;;;;;;;;;9.33;6.00;;;;;15.99;63.94;102227.16;5058861;28;45351;-42
2023/09/30 04:52:02;;;;;;;;;8.67;6.00;;;;;15.94;64.18;102242.88;5058181;28;46960;-43
2023/09/30 04:54:29;;;;;;;;;9.33;5.00;;;;;15.90;64.31;102244.13;5058554;28;45351;-43
2023/09/30 04:56:54;;;;;;;;;6.67;6.00;;;;;15.94;64.50;102238.34;5058665;28;45337;-41
2023/09/30 04:59:19;;;;;;;;;6.33;6.00;;;;;15.97;64.24;102253.31;5058539;28;45500;-42
2023/09/30 05:01:45;;;;;;;;;10.33;8.00;;;;;15.98;64.82;102257.69;5058246;28;46067;-43
2023/09/30 05:04:10;;;;;;;;;8.67;5.00;;;;;16.00;64.50;102255.69;5058175;28;45427;-45
2023/09/30 05:06:36;;;;;;;;;9.33;6.00;;;;;16.02;64.60;102247.50;5058100;28;45271;-42
2023/09/30 05:09:01;;;;;;;;;4.00;2.33;;;;;16.02;64.36;102236.78;5058580;28;45353;-42
2023/09/30 05:11:27;;;;;;;;;10.00;6.33;;;;;15.96;64.14;102227.44;5058164;28;46087;-42
2023/09/30 05:13:52;;;;;;;;;9.00;6.67;;;;;15.93;64.50;102233.97;5058063;28;45426;-42
2023/09/30 05:16:18;;;;;;;;;11.00;7.00;;;;;15.93;64.63;102246.53;5058110;28;45451;-42
2023/09/30 05:18:43;;;;;;;;;9.33;5.00;;;;;15.93;64.67;102239.34;5058117;28;45473;-41
2023/09/30 05:21:10;;;;;;;;;11.33;10.33;;;;;15.92;64.85;102243.00;5057672;28;46198;-42
2023/09/30 05:23:35;;;;;;;;;4.33;3.67;;;;;15.95;64.73;102249.91;5057902;28;45237;-41
2023/09/30 05:26:01;;;;;;;;;8.33;4.00;;;;;15.95;64.79;102237.34;5057853;28;45383;-42
2023/09/30 05:28:27;;;;;;;;;8.33;6.00;;;;;15.93;64.82;102238.50;5057188;28;45235;-40
2023/09/30 05:30:53;;;;;;;;;7.67;5.00;;;;;15.83;64.80;102222.41;5057614;28;45645;-41
2023/09/30 05:33:18;;;;;;;;;4.33;3.67;;;;;15.88;64.61;102246.94;5057783;28;45313;-43
2023/09/30 05:35:44;;;;;;;;;8.00;5.67;;;;;15.87;64.81;102256.00;5057656;28;45559;-41
2023/09/30 05:38:10;;;;;;;;;5.00;5.00;;;;;15.90;65.40;102260.25;5057829;28;45484;-42
2023/09/30 05:40:36;;;;;;;;;9.33;5.33;;;;;15.84;65.22;102242.88;5057500;28;45970;-42
2023/09/30 05:43:01;;;;;;;;;8.00;5.00;;;;;15.53;65.23;102185.84;5057447;28;45376;-42
2023/09/30 05:45:30;;;;;;;;;6.67;5.67;;;;;15.95;65.15;102257.97;5057580;28;45360;-42
2023/09/30 05:47:57;;;;;;;;;7.67;5.00;;;;;15.99;65.13;102274.63;5057871;28;45341;-42
2023/09/30 05:50:24;;;;;;;;;1.33;1.33;;;;;16.02;65.35;102268.97;5057334;28;46052;-42
2023/09/30 05:52:51;;;;;;;;;9.00;4.67;;;;;16.01;65.04;102256.53;5056989;28;45558;-43
2023/09/30 05:55:22;;;;;;;;;8.00;4.00;;;;;15.96;65.05;102232.81;5057481;28;45486;-42
2023/09/30 05:57:52;;;;;;;;;10.00;5.00;;;;;16.06;64.83;102228.28;5057728;28;45304;-42
2023/09/30 06:00:30;;;;;;;;;11.67;6.67;;;;;16.07;64.75;102224.59;5057277;28;45595;-41
2023/09/30 06:02:59;;;;;;;;;8.00;6.33;;;;;16.03;64.46;102225.03;5057404;28;45406;-42
2023/09/30 06:05:30;;;;;;;;;10.00;8.33;;;;;16.01;64.69;102232.38;5057047;28;45295;-41
2023/09/30 06:07:55;;;;;;;;;7.00;7.00;;;;;16.01;64.76;102246.63;5056637;28;45304;-41
2023/09/30 06:10:21;;;;;;;;;10.33;6.67;;;;;16.03;64.92;102238.47;5056700;28;45801;-42
2023/09/30 06:12:54;;;;;;;;;9.67;5.67;;;;;16.08;65.05;102237.00;5057102;28;45375;-43
2023/09/30 06:15:21;;;;;;;;;9.00;6.00;;;;;16.07;64.95;102245.22;5057304;28;45287;-45
2023/09/30 06:17:49;;;;;;;;;6.67;6.00;;;;;16.09;64.46;102249.44;5056335;28;45543;-44
2023/09/30 06:20:17;;;;;;;;;7.00;7.00;;;;;16.12;64.44;102240.25;5056747;28;46277;-44
2023/09/30 06:22:45;;;;;;;;;10.67;9.00;;;;;16.12;64.57;102246.47;5056143;28;45565;-45
2023/09/30 06:25:11;;;;;;;;;9.33;7.00;;;;;16.06;64.59;102238.16;5057101;28;45413;-43
2023/09/30 06:27:37;;;;;;;;;10.33;5.67;;;;;16.13;64.25;102261.56;5057505;28;45364;-42
2023/09/30 06:30:04;;;;;;;;;7.33;6.00;;;;;16.04;64.18;102240.97;5056948;28;45244;-44
2023/09/30 06:32:30;;;;;;;;;10.00;7.00;;;;;16.18;64.49;102253.97;5056983;28;45331;-43
2023/09/30 06:34:55;;;;;;;;;9.67;8.00;;;;;16.21;64.37;102240.22;5057163;28;45252;-45
2023/09/30 06:37:20;;;;;;;;;10.33;6.00;;;;;16.25;63.98;102256.03;5056897;28;45341;-42
2023/09/30 06:39:48;;;;;;;;;9.33;5.00;;;;;16.29;63.93;102265.50;5059136;28;45925;-42
2023/09/30 06:42:13;;;;;;;;;10.67;3.33;;;;;16.27;64.05;102256.75;5060631;28;45354;-43
2023/09/30 06:44:39;;;;;;;;;8.67;8.00;;;;;16.37;63.78;102279.88;5060305;28;45430;-43
2023/09/30 06:47:05;;;;;;;;;6.33;6.33;;;;;16.45;64.10;102281.81;5060721;28;45333;-42
2023/09/30 06:49:34;;;;;;;;;8.00;4.00;;;;;16.52;63.89;102272.19;5060243;28;46899;-43
2023/09/30 06:51:59;;;;;;;;;11.67;6.00;;;;;16.56;63.58;102254.78;5060260;28;45302;-42
2023/09/30 06:54:24;;;;;;;;;9.00;5.00;;;;;16.66;63.65;102265.47;5060676;28;45173;-43
2023/09/30 06:56:49;;;;;;;;;9.33;6.33;;;;;16.76;63.31;102278.88;5060183;28;46531;-44
2023/09/30 06:59:15;;;;;;;;;8.00;6.67;;;;;16.84;63.21;102277.13;5060020;28;46310;-42
2023/09/30 07:01:40;;;;;;;;;8.33;8.00;;;;;16.93;62.79;102270.00;5059983;28;47550;-42
2023/09/30 07:04:06;;;;;;;;;6.67;3.00;;;;;16.99;62.77;102273.94;5060155;28;45462;-41
2023/09/30 07:06:31;;;;;;;;;5.00;2.00;;;;;17.05;62.59;102268.78;5060225;28;45435;-41
2023/09/30 07:08:57;;;;;;;;;13.00;5.00;;;;;17.09;62.08;102263.97;5059362;28;47349;-41
2023/09/30 07:11:34;;;;;;;;;16.33;9.67;;;;;17.09;62.28;102264.81;5060072;28;45362;-42
2023/09/30 07:14:00;;;;;;;;;8.00;6.00;;;;;17.15;62.38;102266.91;5060298;28;45336;-41
2023/09/30 07:16:25;;;;;;;;;5.33;5.33;;;;;17.19;61.73;102270.09;5060163;28;45411;-42
2023/09/30 07:18:51;;;;;;;;;5.50;3.75;;;;;17.26;61.57;102278.41;5059866;28;46208;-42
2023/09/30 07:21:16;;;;;;;;;12.00;7.50;;;;;17.15;61.70;102260.66;5059536;28;51593;-45
2023/09/30 07:23:42;;;;;;;;;5.50;3.75;;;;;17.32;61.63;102273.28;5059644;28;45467;-42
2023/09/30 07:26:08;;;;;;;;;6.75;3.50;;;;;17.37;61.07;102283.59;5060309;28;45261;-42
2023/09/30 07:28:33;;;;;;;;;6.75;6.25;;;;;17.44;61.29;102280.13;5059678;28;45333;-42
2023/09/30 07:30:59;;;;;;;;;8.67;7.00;;;;;17.43;61.26;102275.72;5059631;28;45395;-41
2023/09/30 07:33:24;;;;;;;;;7.00;5.75;;;;;17.39;60.84;102257.34;5059764;28;45334;-42
2023/09/30 07:35:50;;;;;;;;;8.75;4.00;;;;;17.60;60.90;102273.19;5059147;28;45714;-41
2023/09/30 07:38:15;;;;;;;;;4.00;4.00;;;;;17.71;60.59;102275.63;5059120;28;45361;-42
2023/09/30 07:40:41;;;;;;;;;7.50;4.00;;;;;17.84;60.36;102269.88;5059477;28;45477;-43
2023/09/30 07:43:07;;;;;;;;;7.00;5.00;;;;;17.93;60.16;102266.22;5059995;28;45307;-44
2023/09/30 07:45:32;;;;;;;;;9.75;7.00;;;;;17.97;59.92;102267.59;5059646;28;45320;-45
2023/09/30 07:47:58;;;;;;;;;5.75;4.50;;;;;18.04;59.93;102271.38;5058204;28;45313;-41
2023/09/30 07:50:24;;;;;;;;;15.25;5.75;;;;;18.13;59.74;102266.88;5058666;28;45345;-44
2023/09/30 07:52:49;;;;;;;;;5.75;4.25;;;;;18.20;59.58;102274.16;5059668;28;45347;-49
2023/09/30 07:55:15;;;;;;;;;6.25;5.00;;;;;18.26;59.54;102278.06;5060108;28;45459;-45
2023/09/30 07:57:43;;;;;;;;;8.50;5.00;;;;;18.20;59.51;102270.59;5059433;28;46221;-44
2023/09/30 08:00:09;;;;;;;;;10.00;5.50;;;;;18.11;59.83;102277.78;5059334;28;45280;-47
2023/09/30 08:02:36;;;;;;;;;7.25;5.00;;;;;18.05;60.18;102270.34;5059628;28;45196;-43
2023/09/30 08:05:02;;;;;;;;;7.00;6.00;;;;;18.14;59.80;102272.09;5059489;28;45332;-44
2023/09/30 08:07:27;;;;;;;;;4.75;4.75;;;;;18.25;60.03;102281.75;5058789;28;46106;-55
2023/09/30 08:09:52;;;;;;;;;5.25;4.75;;;;;18.45;59.58;102283.19;5059218;28;46092;-44
2023/09/30 08:12:18;;;;;;;;;7.25;4.50;;;;;18.67;59.05;102292.56;5059145;28;45358;-43
2023/09/30 08:14:46;;;;;;;;;9.75;6.25;;;;;18.82;58.92;102289.28;5059268;28;45434;-43
2023/09/30 08:17:11;;;;;;;;;9.00;6.00;;;;;18.83;58.71;102282.88;5058914;28;46188;-52
2023/09/30 08:19:37;;;;;;;;;7.75;4.75;;;;;18.97;58.57;102290.34;5058950;28;45353;-43
2023/09/30 08:22:03;;;;;;;;;9.75;4.75;;;;;19.04;58.37;102282.44;5059132;28;45254;-49
2023/09/30 08:24:30;;;;;;;;;10.50;7.00;;;;;19.13;57.98;102284.13;5058995;28;45350;-50
2023/09/30 08:26:56;;;;;;;;;6.50;4.00;;;;;19.30;57.76;102285.88;5058500;28;53779;-43
2023/09/30 08:29:22;;;;;;;;;8.25;4.00;;;;;19.66;56.44;102305.31;5058751;28;45426;-44
2023/09/30 08:31:47;;;;;;;;;8.00;5.50;;;;;19.98;55.51;102292.81;5058727;28;45393;-50
2023/09/30 08:34:14;;;;;;;;;6.00;5.00;;;;;20.38;54.95;102299.97;5059157;28;45303;-54
2023/09/30 08:36:40;;;;;;;;;5.00;5.00;;;;;20.95;53.58;102292.69;5058294;28;46061;-42
2023/09/30 08:39:06;;;;;;;;;7.00;5.00;;;;;21.01;51.89;102282.00;5058461;28;45428;-49
2023/09/30 08:41:33;;;;;;;;;5.75;5.75;;;;;21.30;52.21;102300.25;5058555;28;45260;-43
2023/09/30 08:44:02;;;;;;;;;10.00;5.00;;;;;21.52;51.94;102278.78;5058538;28;45446;-49
2023/09/30 08:46:35;;;;;;;;;8.50;5.00;;;;;21.46;52.23;102293.91;5058403;28;45495;-44
2023/09/30 08:49:05;;;;;;;;;9.80;6.00;;;;;21.46;52.19;102291.19;5058223;28;45313;-46
2023/09/30 08:51:31;;;;;;;;;6.75;6.00;;;;;21.42;51.71;102300.72;5058511;28;45328;-46
2023/09/30 08:53:58;;;;;;;;;6.75;4.25;;;;;21.32;51.44;102295.53;5058604;28;45452;-47
2023/09/30 08:56:28;;;;;;;;;6.75;5.50;;;;;21.29;51.88;102312.09;5058298;28;47520;-43
2023/09/30 08:58:58;;;;;;;;;7.00;7.00;;;;;21.19;52.15;102316.88;5058261;28;45328;-56
2023/09/30 09:01:30;;;;;;;;;6.80;6.60;;;;;21.06;52.83;102312.06;5058290;28;45236;-45
2023/09/30 09:03:56;;;;;;;;;9.00;7.00;;;;;20.87;53.01;102301.69;5058541;28;45256;-48
2023/09/30 09:06:23;;;;;;;;;6.50;5.50;;;;;20.81;53.18;102313.19;5058096;28;47291;-52
2023/09/30 09:08:49;;;;;;;;;9.00;6.00;;;;;20.75;52.49;102320.16;5058073;28;45220;-43
2023/09/30 09:11:14;;;;;;;;;12.75;7.75;;;;;20.65;53.35;102314.13;5058226;28;45209;-44
2023/09/30 09:13:53;;;;;;;;;11.25;6.50;;;;;20.50;53.27;102303.19;5058561;28;45412;-43
2023/09/30 09:16:18;;;;;;;;;7.75;3.75;;;;;20.52;53.53;102317.38;5057877;28;47106;-47
2023/09/30 09:18:45;;;;;;;;;8.00;6.00;;;;;20.55;52.87;102319.72;5057947;28;45417;-56
2023/09/30 09:21:13;;;;;;;;;8.75;7.75;;;;;20.55;53.03;102317.03;5040031;28;45409;-55
2023/09/30 09:23:42;;;;;;;;;6.75;6.75;;;;;20.74;53.07;102307.66;5057855;28;45357;-49
2023/09/30 09:26:10;;;;;;;;;10.75;7.50;;;;;20.97;52.85;102293.34;5057627;28;45295;-46
2023/09/30 09:28:36;;;;;;;;;6.00;5.40;;;;;21.49;52.00;102282.72;5057895;28;45391;-43
2023/09/30 09:31:03;;;;;;;;;9.20;5.20;;;;;22.09;51.11;102284.53;5057867;28;45225;-47
2023/09/30 09:33:36;;;;;;;;;9.25;7.50;;;;;22.60;50.25;102283.81;5058028;28;45539;-44
2023/09/30 09:36:02;;;;;;;;;6.00;6.00;;;;;22.89;49.25;102277.50;5056840;28;46420;-43
2023/09/30 09:38:43;;;;;;;;;8.00;6.25;;;;;23.22;49.55;102287.88;5057394;28;45240;-43
2023/09/30 09:41:08;;;;;;;;;5.60;5.60;;;;;23.59;47.62;102294.94;5057754;28;45472;-46
2023/09/30 09:43:41;;;;;;;;;6.25;6.25;;;;;23.93;47.88;102301.53;5057717;28;45257;-44
2023/09/30 09:46:07;;;;;;;;;8.40;6.00;;;;;24.26;46.79;102308.03;5039338;28;46040;-52
2023/09/30 09:48:35;;;;;;;;;7.20;7.20;;;;;24.55;46.46;102306.97;5056835;28;45410;-43
2023/09/30 09:51:02;;;;;;;;;11.40;9.80;;;;;24.60;45.23;102299.03;5057535;28;45435;-43
2023/09/30 09:53:30;;;;;;;;;2.60;1.00;;;;;24.53;46.38;102300.91;5057594;28;45270;-46
2023/09/30 09:55:59;;;;;;;;;8.80;7.80;;;;;24.46;46.30;102300.03;5057117;28;47053;-44
2023/09/30 09:58:26;;;;;;;;;7.40;5.00;;;;;24.24;45.90;102287.53;5057391;28;45272;-42
2023/09/30 10:00:52;;;;;;;;;6.40;6.00;;;;;24.11;45.73;102300.00;5057192;28;45359;-43
2023/09/30 10:03:18;;;;;;;;;9.80;7.40;;;;;24.01;46.24;102309.53;5057499;28;45358;-42
2023/09/30 10:05:45;;;;;;;;;7.00;5.50;;;;;23.79;47.01;102304.13;5056836;28;46044;-43
2023/09/30 10:08:17;;;;;;;;;8.40;7.60;;;;;23.78;47.26;102294.31;5056516;28;45718;-44
2023/09/30 10:10:45;;;;;;;;;9.60;8.00;;;;;23.84;46.65;102265.50;5057360;28;45363;-42
2023/09/30 10:13:49;;;;;;;;;12.80;8.80;;;;;24.29;46.24;102274.16;5056918;28;45598;-44
2023/09/30 10:16:47;;;;;;;;;9.00;6.40;;;;;24.91;46.04;102264.22;5057063;28;45279;-42
2023/09/30 10:19:22;;;;;;;;;14.00;9.80;;;;;25.51;44.15;102257.00;5057020;28;45273;-43
2023/09/30 10:22:19;;;;;;;;;7.80;5.00;;;;;25.91;44.10;102254.28;5057590;28;45318;-43
2023/09/30 10:24:46;;;;;;;;;8.00;4.80;;;;;26.48;43.15;102255.44;5057002;28;45411;-44
2023/09/30 10:27:31;;;;;;;;;7.20;6.00;;;;;26.96;42.91;102266.72;5056810;28;45371;-44
2023/09/30 10:30:13;;;;;;;;;6.00;5.60;;;;;27.05;42.42;102245.47;5056167;28;45319;-43
2023/09/30 10:32:50;;;;;;;;;3.80;3.00;;;;;27.38;41.28;102267.13;5057037;28;45347;-45
2023/09/30 10:35:31;;;;;;;;;5.80;5.20;;;;;27.61;40.94;102261.06;5057010;28;45412;-45
2023/09/30 10:38:21;;;;;;;;;6.60;4.00;;;;;27.64;40.44;102260.59;5056362;28;46498;-44
2023/09/30 10:40:47;;;;;;;;;5.20;5.20;;;;;27.67;39.39;102246.47;5056632;28;45314;-43
2023/09/30 10:43:37;;;;;;;;;7.50;4.25;;;;;28.00;39.34;102246.19;5056993;28;45220;-45
2023/09/30 10:46:26;;;;;;;;;4.60;4.60;;;;;28.66;38.93;102239.13;5056911;28;45505;-46
2023/09/30 10:48:52;;;;;;;;;7.00;5.20;;;;;29.44;36.75;102235.44;4975036;28;45441;-44
2023/09/30 10:51:21;;;;;;;;;5.75;5.00;;;;;30.10;36.40;102246.31;4975001;28;45567;-43
2023/09/30 10:53:47;;;;;;;;;6.80;5.40;;;;;30.68;35.46;102240.69;4975079;28;45658;-44
2023/09/30 10:56:14;;;;;;;;;7.60;6.80;;;;;31.50;32.69;102237.53;4975373;28;45454;-43
2023/09/30 10:58:47;;;;;;;;;4.80;4.00;;;;;31.91;32.06;102223.56;4974768;28;46520;-42
2023/09/30 11:01:15;;;;;;;;;4.20;3.40;;;;;31.97;31.69;102239.88;4974517;28;45528;-43
2023/09/30 11:03:41;;;;;;;;;6.60;5.00;;;;;31.68;31.63;102232.84;4975114;28;45449;-51
2023/09/30 11:06:07;;;;;;;;;13.40;5.00;;;;;32.26;31.74;102229.53;4975167;28;45308;-43
2023/09/30 11:08:34;;;;;;;;;5.50;5.25;;;;;33.11;31.08;102229.94;4974969;28;45285;-43
2023/09/30 11:11:00;;;;;;;;;6.20;4.60;;;;;33.12;29.72;102215.09;4975038;28;45493;-43
2023/09/30 11:13:34;;;;;;;;;7.20;7.20;;;;;34.12;29.34;102208.88;4975221;28;45234;-44
2023/09/30 11:16:04;;;;;;;;;12.60;5.60;;;;;35.07;27.82;102211.34;4975265;28;45422;-51
2023/09/30 11:18:31;;;;;;;;;4.80;4.40;;;;;35.59;26.85;102210.22;4973824;28;45516;-52
2023/09/30 11:21:08;;;;;;;;;9.80;7.00;;;;;36.56;27.33;102204.31;4974736;28;45463;-44
2023/09/30 11:23:35;;;;;;;;;8.20;6.80;;;;;35.88;26.06;102207.63;4974833;28;45384;-45
2023/09/30 11:26:00;;;;;;;;;10.60;5.60;;;;;34.25;29.71;102213.88;5022400;28;45569;-53